Time;durP1;ratioP1;P1;durP2;ratioP2;P2;SDS_P1;SDS_P2;PMS_P1;PMS_P2;Temp;Humidity;BMP_temperature;BMP_pressure;BME280_temperature;BME280_humidity;BME280_pressure;Samples;Min_cycle;Max_cycle;Signal;HPM_P1;HPM_P2
2023/01/08 00:00:48;;;;;;;3.70;1.60;;;9.60;99.90;;;;;;5053141;28;20194;-46
2023/01/08 00:03:14;;;;;;;4.07;1.57;;;9.60;99.90;;;;;;5052474;28;20200;-45
2023/01/08 00:05:40;;;;;;;2.33;1.40;;;9.50;99.90;;;;;;5053256;28;20190;-47
2023/01/08 00:08:07;;;;;;;4.27;1.90;;;9.50;99.90;;;;;;5053305;28;20183;-46
2023/01/08 00:10:33;;;;;;;2.83;1.23;;;9.50;99.90;;;;;;5052997;28;20257;-44
2023/01/08 00:12:59;;;;;;;2.03;1.60;;;9.40;99.90;;;;;;5053029;28;20675;-46
2023/01/08 00:15:24;;;;;;;2.90;1.70;;;9.40;99.90;;;;;;5053529;28;20186;-42
2023/01/08 00:17:50;;;;;;;2.53;2.23;;;9.40;99.90;;;;;;5053415;28;20695;-45
2023/01/08 00:20:16;;;;;;;1.90;1.57;;;9.40;99.90;;;;;;5052926;28;20187;-45
2023/01/08 00:22:41;;;;;;;2.00;1.63;;;9.40;99.90;;;;;;5054630;28;20278;-43
2023/01/08 00:25:07;;;;;;;3.80;1.90;;;9.40;99.90;;;;;;5053259;28;20195;-44
2023/01/08 00:27:33;;;;;;;2.47;1.50;;;9.40;99.90;;;;;;5052823;28;20639;-46
2023/01/08 00:29:58;;;;;;;2.47;2.17;;;9.40;99.90;;;;;;5052749;28;20214;-46
2023/01/08 00:32:24;;;;;;;6.30;1.70;;;9.40;99.90;;;;;;5052840;28;20206;-44
2023/01/08 00:34:50;;;;;;;2.27;1.70;;;9.50;99.90;;;;;;5034909;28;20183;-46
2023/01/08 00:37:18;;;;;;;2.77;1.50;;;9.40;99.90;;;;;;5053108;28;20187;-43
2023/01/08 00:39:44;;;;;;;2.70;1.60;;;9.40;99.90;;;;;;5053407;28;20182;-46
2023/01/08 00:42:11;;;;;;;5.40;1.90;;;9.50;99.90;;;;;;5052905;28;20208;-43
2023/01/08 00:44:37;;;;;;;2.67;1.47;;;9.50;99.90;;;;;;5052684;28;20186;-45
2023/01/08 00:47:02;;;;;;;4.03;1.97;;;9.60;99.90;;;;;;5052963;28;20245;-47
2023/01/08 00:49:28;;;;;;;4.10;2.03;;;9.60;99.90;;;;;;5052553;28;20607;-44
2023/01/08 00:51:53;;;;;;;4.50;1.93;;;9.60;99.90;;;;;;5052608;28;20644;-44
2023/01/08 00:54:19;;;;;;;5.50;2.10;;;9.60;99.90;;;;;;5034753;28;20283;-44
2023/01/08 00:56:44;;;;;;;6.67;1.97;;;9.60;99.90;;;;;;5052476;28;20289;-43
2023/01/08 00:59:10;;;;;;;4.73;1.97;;;9.60;99.90;;;;;;5052628;28;20192;-44
2023/01/08 01:01:36;;;;;;;3.00;2.03;;;9.60;99.90;;;;;;5053039;28;20211;-43
2023/01/08 01:04:01;;;;;;;4.63;1.83;;;9.60;99.90;;;;;;5052507;28;20179;-44
2023/01/08 01:06:27;;;;;;;3.73;2.30;;;9.60;99.90;;;;;;5052574;28;20549;-44
2023/01/08 01:08:53;;;;;;;4.50;2.10;;;9.70;99.90;;;;;;5052704;28;20195;-46
2023/01/08 01:11:21;;;;;;;3.23;1.90;;;9.60;99.90;;;;;;5052646;28;20222;-44
2023/01/08 01:13:48;;;;;;;4.47;1.90;;;9.60;99.90;;;;;;5053910;28;20188;-45
2023/01/08 01:16:13;;;;;;;5.27;1.70;;;9.60;99.90;;;;;;5038166;28;20194;-46
2023/01/08 01:18:39;;;;;;;4.13;1.80;;;9.60;99.90;;;;;;5038117;28;20636;-47
2023/01/08 01:21:19;;;;;;;3.87;2.13;;;9.60;99.90;;;;;;5038105;28;20191;-44
2023/01/08 01:23:45;;;;;;;2.63;1.60;;;9.70;99.90;;;;;;5056263;28;20261;-46
2023/01/08 01:26:18;;;;;;;2.37;1.73;;;9.70;99.90;;;;;;5055964;28;20261;-46
2023/01/08 01:28:47;;;;;;;4.23;1.87;;;9.70;99.90;;;;;;5056069;28;20185;-45
2023/01/08 01:31:13;;;;;;;2.77;1.87;;;9.70;99.90;;;;;;5037922;28;20207;-46
2023/01/08 01:33:39;;;;;;;3.40;1.93;;;9.70;99.90;;;;;;5037959;28;20179;-44
2023/01/08 01:36:05;;;;;;;2.13;1.60;;;9.70;99.90;;;;;;5055741;28;20608;-46
2023/01/08 01:38:31;;;;;;;2.87;1.80;;;9.70;99.90;;;;;;5055630;28;20187;-45
2023/01/08 01:40:56;;;;;;;4.87;2.10;;;9.70;99.90;;;;;;5037716;28;20203;-45
2023/01/08 01:43:40;;;;;;;2.20;2.00;;;9.80;99.90;;;;;;5055527;28;20241;-49
2023/01/08 01:46:20;;;;;;;5.27;2.10;;;9.80;99.90;;;;;;5055787;28;20188;-50
2023/01/08 01:48:50;;;;;;;3.07;2.23;;;9.80;99.90;;;;;;5055707;28;20640;-51
2023/01/08 01:51:16;;;;;;;4.87;2.00;;;9.80;99.90;;;;;;5055274;28;20199;-51
2023/01/08 01:53:41;;;;;;;3.23;2.00;;;9.80;99.90;;;;;;5055662;28;20264;-51
2023/01/08 01:56:08;;;;;;;3.37;1.70;;;9.80;99.90;;;;;;5055325;28;20195;-52
2023/01/08 01:58:35;;;;;;;3.20;1.83;;;9.80;99.90;;;;;;5055177;28;20207;-50
2023/01/08 02:01:04;;;;;;;3.30;1.67;;;9.80;99.90;;;;;;5055554;28;20184;-51
2023/01/08 02:03:34;;;;;;;3.30;1.73;;;9.80;99.90;;;;;;5055131;28;20240;-50
2023/01/08 02:06:06;;;;;;;3.07;1.87;;;9.70;99.90;;;;;;5055354;28;20595;-51
2023/01/08 02:08:43;;;;;;;2.50;2.00;;;9.70;99.90;;;;;;5055218;28;20175;-50
2023/01/08 02:11:16;;;;;;;2.07;1.67;;;9.70;99.90;;;;;;5037183;28;20226;-50
2023/01/08 02:13:57;;;;;;;2.57;1.80;;;9.70;99.90;;;;;;5055587;28;20160;-51
2023/01/08 02:16:39;;;;;;;4.13;2.00;;;9.70;99.90;;;;;;5054948;28;20175;-50
2023/01/08 02:19:16;;;;;;;2.10;1.90;;;9.60;99.90;;;;;;5055175;28;20225;-50
2023/01/08 02:22:01;;;;;;;2.93;1.90;;;9.70;99.90;;;;;;5055101;28;20211;-50
2023/01/08 02:24:43;;;;;;;2.77;1.57;;;9.70;99.90;;;;;;5054653;28;20634;-51
2023/01/08 02:27:10;;;;;;;1.87;1.77;;;9.70;99.90;;;;;;5054353;28;20173;-51
2023/01/08 02:29:36;;;;;;;2.90;1.70;;;9.60;99.90;;;;;;5054624;28;20207;-52
2023/01/08 02:32:02;;;;;;;2.13;1.70;;;9.70;99.90;;;;;;5037081;28;20226;-51
2023/01/08 02:34:30;;;;;;;2.07;1.43;;;9.70;99.90;;;;;;5036775;28;20241;-50
2023/01/08 02:36:57;;;;;;;1.40;1.30;;;9.70;99.90;;;;;;5054858;28;20210;-51
2023/01/08 02:39:42;;;;;;;1.63;1.43;;;9.70;99.90;;;;;;5055096;28;20187;-49
2023/01/08 02:42:35;;;;;;;3.20;1.20;;;9.80;99.90;;;;;;5054886;28;20226;-49
2023/01/08 02:45:32;;;;;;;3.17;1.60;;;9.80;99.90;;;;;;5054816;28;20258;-50
2023/01/08 02:48:19;;;;;;;2.07;1.17;;;9.80;99.90;;;;;;5054880;28;20586;-50
2023/01/08 02:51:13;;;;;;;4.40;1.97;;;9.80;99.90;;;;;;5054497;28;20297;-49
2023/01/08 02:53:42;;;;;;;2.93;1.30;;;9.80;99.90;;;;;;5036395;28;20613;-50
2023/01/08 02:56:13;;;;;;;2.43;1.10;;;9.90;99.90;;;;;;5054156;28;20255;-50
2023/01/08 02:58:40;;;;;;;1.50;1.10;;;9.80;99.90;;;;;;5054708;28;20207;-50
2023/01/08 03:01:08;;;;;;;2.93;1.10;;;9.90;99.90;;;;;;5054025;28;20190;-50
2023/01/08 03:03:35;;;;;;;1.37;1.27;;;9.80;99.90;;;;;;5054648;28;20185;-50
2023/01/08 03:06:06;;;;;;;2.23;1.23;;;9.80;99.90;;;;;;5054663;28;20184;-49
2023/01/08 03:08:39;;;;;;;1.33;1.13;;;9.90;99.90;;;;;;5054278;28;20172;-50
2023/01/08 03:11:17;;;;;;;1.17;0.87;;;9.80;99.90;;;;;;5054025;28;20633;-50
2023/01/08 03:13:52;;;;;;;1.77;1.00;;;9.80;99.90;;;;;;5054106;28;20171;-49
2023/01/08 03:16:42;;;;;;;1.37;0.90;;;9.80;99.90;;;;;;5053874;28;20509;-50
2023/01/08 03:19:43;;;;;;;1.57;1.00;;;9.80;99.90;;;;;;5036326;28;20163;-50
2023/01/08 03:22:12;;;;;;;1.70;0.93;;;9.80;99.90;;;;;;5053750;28;20597;-48
2023/01/08 03:24:40;;;;;;;1.57;0.90;;;9.90;99.90;;;;;;5053743;28;20649;-50
2023/01/08 03:27:09;;;;;;;4.80;1.20;;;9.80;99.90;;;;;;5053827;28;20239;-51
2023/01/08 03:29:38;;;;;;;4.07;1.00;;;9.90;99.90;;;;;;5053543;28;20202;-49
2023/01/08 03:32:10;;;;;;;1.20;1.10;;;9.80;99.90;;;;;;5053580;28;20214;-50
2023/01/08 03:34:39;;;;;;;1.60;0.90;;;9.80;99.90;;;;;;5035721;28;20171;-50
2023/01/08 03:37:07;;;;;;;4.20;1.00;;;9.80;99.90;;;;;;5053282;28;20545;-50
2023/01/08 03:39:42;;;;;;;1.30;0.87;;;9.80;99.90;;;;;;5053666;28;20219;-50
2023/01/08 03:42:12;;;;;;;2.00;1.00;;;9.80;99.90;;;;;;5053584;28;20202;-52
2023/01/08 03:44:38;;;;;;;1.17;0.90;;;9.80;99.90;;;;;;5053410;28;20198;-52
2023/01/08 03:47:05;;;;;;;0.97;0.83;;;9.80;99.90;;;;;;5053393;28;20183;-49
2023/01/08 03:49:31;;;;;;;1.43;0.90;;;9.80;99.90;;;;;;5053469;28;20215;-49
2023/01/08 03:51:57;;;;;;;0.90;0.70;;;9.90;99.90;;;;;;5035246;28;20251;-50
2023/01/08 03:54:27;;;;;;;2.27;1.00;;;9.80;99.90;;;;;;5053167;28;20238;-52
2023/01/08 03:56:53;;;;;;;0.93;0.80;;;9.80;99.90;;;;;;5053185;28;20204;-49
2023/01/08 03:59:18;;;;;;;1.80;0.90;;;9.80;99.90;;;;;;5053148;28;20183;-50
2023/01/08 04:01:44;;;;;;;2.10;0.90;;;9.80;99.90;;;;;;5053275;28;20271;-49
2023/01/08 04:04:10;;;;;;;1.03;0.80;;;9.80;99.90;;;;;;5053101;28;20195;-52
2023/01/08 04:06:36;;;;;;;0.80;0.80;;;9.80;99.90;;;;;;5053350;28;20184;-51
2023/01/08 04:09:02;;;;;;;1.20;0.70;;;9.90;99.90;;;;;;5053200;28;20190;-51
2023/01/08 04:11:27;;;;;;;0.93;0.47;;;9.80;99.90;;;;;;5053212;28;20207;-50
2023/01/08 04:13:53;;;;;;;1.10;0.63;;;9.80;99.90;;;;;;5052971;28;20173;-50
2023/01/08 04:16:18;;;;;;;1.20;0.80;;;9.90;99.90;;;;;;5053230;28;20187;-51
2023/01/08 04:18:44;;;;;;;2.30;0.60;;;9.80;99.90;;;;;;5052980;28;20178;-51
2023/01/08 04:21:09;;;;;;;0.97;0.57;;;9.80;99.90;;;;;;5052837;28;20249;-52
2023/01/08 04:23:35;;;;;;;0.90;0.73;;;9.70;99.90;;;;;;5053662;28;20273;-51
2023/01/08 04:26:07;;;;;;;3.50;0.80;;;9.70;99.90;;;;;;5052927;28;20215;-50
2023/01/08 04:28:34;;;;;;;3.73;0.60;;;9.70;99.90;;;;;;5053104;28;20183;-51
2023/01/08 04:31:03;;;;;;;0.50;0.50;;;9.70;99.90;;;;;;5052995;28;20206;-52
2023/01/08 04:33:29;;;;;;;0.90;0.60;;;9.60;99.90;;;;;;5052828;28;20257;-50
2023/01/08 04:35:54;;;;;;;2.37;0.60;;;9.60;99.90;;;;;;5052777;28;20609;-51
2023/01/08 04:38:20;;;;;;;1.47;0.70;;;9.90;99.90;;;;;;5052771;28;20580;-51
2023/01/08 04:40:45;;;;;;;3.60;0.80;;;9.60;99.90;;;;;;5034900;28;20195;-51
2023/01/08 04:43:11;;;;;;;0.87;0.60;;;9.60;99.90;;;;;;5052942;28;20290;-50
2023/01/08 04:45:37;;;;;;;2.40;0.60;;;9.60;99.90;;;;;;5052872;28;20199;-50
2023/01/08 04:48:02;;;;;;;0.57;0.50;;;9.60;99.90;;;;;;5052678;28;20215;-51
2023/01/08 04:50:28;;;;;;;1.03;0.80;;;9.60;99.90;;;;;;5056562;28;20309;-51
2023/01/08 04:52:53;;;;;;;0.93;0.70;;;9.60;99.90;;;;;;5056502;28;20602;-50
2023/01/08 04:55:19;;;;;;;1.13;0.50;;;9.60;99.90;;;;;;5056289;28;20562;-51
2023/01/08 04:57:45;;;;;;;2.20;0.80;;;9.50;99.90;;;;;;5056738;28;20222;-52
2023/01/08 05:00:11;;;;;;;1.13;0.80;;;9.50;99.90;;;;;;5056445;28;20187;-52
2023/01/08 05:02:38;;;;;;;0.67;0.60;;;9.50;99.90;;;;;;5056861;28;20565;-51
2023/01/08 05:05:04;;;;;;;1.60;0.70;;;9.40;99.90;;;;;;5056719;28;20195;-49
2023/01/08 05:07:29;;;;;;;2.27;0.77;;;9.40;99.90;;;;;;5056416;28;20317;-50
2023/01/08 05:09:55;;;;;;;0.93;0.63;;;9.40;99.90;;;;;;5056169;28;20207;-50
2023/01/08 05:12:20;;;;;;;1.20;0.63;;;9.30;99.90;;;;;;5056254;28;20192;-49
2023/01/08 05:14:46;;;;;;;0.40;0.40;;;9.30;99.90;;;;;;5056243;28;20210;-50
2023/01/08 05:17:11;;;;;;;0.87;0.60;;;9.30;99.90;;;;;;5056898;28;20201;-50
2023/01/08 05:19:37;;;;;;;4.93;0.70;;;9.20;99.90;;;;;;5056256;28;20218;-50
2023/01/08 05:22:03;;;;;;;0.93;0.60;;;9.10;99.90;;;;;;5056038;28;20198;-49
2023/01/08 05:24:28;;;;;;;0.97;0.63;;;9.10;99.90;;;;;;5055956;28;20180;-49
2023/01/08 05:26:54;;;;;;;2.13;0.67;;;9.00;99.90;;;;;;5056473;28;20194;-49
2023/01/08 05:29:19;;;;;;;0.83;0.40;;;9.00;99.90;;;;;;5037949;28;20208;-51
2023/01/08 05:31:45;;;;;;;2.37;0.70;;;8.90;99.90;;;;;;5056106;28;20195;-50
2023/01/08 05:34:11;;;;;;;0.57;0.53;;;8.90;99.90;;;;;;5055853;28;20190;-50
2023/01/08 05:36:36;;;;;;;3.20;0.70;;;8.90;99.90;;;;;;5055722;28;20199;-51
2023/01/08 05:39:02;;;;;;;2.17;0.90;;;8.80;99.90;;;;;;5055699;28;20179;-51
2023/01/08 05:41:28;;;;;;;0.60;0.53;;;8.80;99.90;;;;;;5055584;28;20230;-52
2023/01/08 05:43:54;;;;;;;1.20;0.70;;;8.80;99.90;;;;;;5055611;28;20211;-49
2023/01/08 05:46:19;;;;;;;1.43;0.60;;;8.80;99.90;;;;;;5055556;28;20179;-51
2023/01/08 05:48:45;;;;;;;0.90;0.70;;;8.90;99.90;;;;;;5055546;28;20206;-51
2023/01/08 05:51:10;;;;;;;0.83;0.70;;;8.90;99.90;;;;;;5055965;28;20226;-49
2023/01/08 05:53:36;;;;;;;1.13;0.77;;;8.90;99.90;;;;;;5056055;28;20168;-51
2023/01/08 05:56:04;;;;;;;3.30;0.63;;;8.90;99.90;;;;;;5055732;28;20184;-51
2023/01/08 05:58:30;;;;;;;5.83;0.73;;;8.90;99.90;;;;;;5055278;28;20175;-50
2023/01/08 06:01:09;;;;;;;1.97;0.80;;;8.90;99.90;;;;;;5054320;28;20655;-51
2023/01/08 06:03:35;;;;;;;4.10;0.80;;;8.90;99.90;;;;;;5055204;28;20253;-49
2023/01/08 06:06:02;;;;;;;4.47;1.23;;;8.90;99.90;;;;;;5055202;28;20184;-49
2023/01/08 06:08:29;;;;;;;1.17;0.60;;;8.90;99.90;;;;;;5055155;28;20664;-51
2023/01/08 06:11:02;;;;;;;2.53;0.57;;;8.80;99.90;;;;;;5055168;28;20307;-47
2023/01/08 06:13:28;;;;;;;2.63;0.60;;;8.70;99.90;;;;;;5055393;28;20162;-48
2023/01/08 06:15:53;;;;;;;3.40;0.87;;;8.60;99.90;;;;;;5055016;28;20178;-50
2023/01/08 06:18:19;;;;;;;3.20;0.70;;;8.50;99.90;;;;;;5054907;28;20180;-50
2023/01/08 06:20:45;;;;;;;2.03;0.83;;;8.40;99.90;;;;;;5055477;28;20177;-48
2023/01/08 06:23:10;;;;;;;3.13;0.90;;;8.30;99.90;;;;;;5054843;28;20208;-50
2023/01/08 06:25:36;;;;;;;3.43;0.90;;;8.20;99.90;;;;;;5054798;28;20675;-49
2023/01/08 06:28:03;;;;;;;4.83;0.70;;;8.20;99.90;;;;;;5055132;28;20268;-49
2023/01/08 06:30:28;;;;;;;6.80;1.07;;;8.10;99.90;;;;;;5054882;28;20405;-51
2023/01/08 06:32:58;;;;;;;2.80;0.67;;;8.10;99.90;;;;;;5054975;28;20272;-49
2023/01/08 06:35:24;;;;;;;3.30;0.97;;;8.00;99.90;;;;;;5054720;28;20278;-50
2023/01/08 06:37:50;;;;;;;2.03;0.70;;;8.00;99.90;;;;;;5054611;28;20168;-50
2023/01/08 06:40:16;;;;;;;3.33;1.17;;;8.00;99.90;;;;;;5054852;28;20540;-51
2023/01/08 06:42:42;;;;;;;2.23;0.50;;;7.90;99.90;;;;;;5054597;28;20276;-50
2023/01/08 06:45:09;;;;;;;2.57;0.70;;;7.90;99.90;;;;;;5054478;28;20179;-52
2023/01/08 06:47:35;;;;;;;1.13;0.60;;;7.80;99.90;;;;;;5054405;28;20184;-50
2023/01/08 06:50:01;;;;;;;4.57;0.67;;;7.80;99.90;;;;;;5054589;28;20211;-51
2023/01/08 06:52:26;;;;;;;2.23;0.77;;;7.80;99.90;;;;;;5054330;28;20242;-52
2023/01/08 06:54:52;;;;;;;1.10;0.60;;;7.70;99.90;;;;;;5054479;28;20184;-50
2023/01/08 06:57:17;;;;;;;3.17;0.77;;;7.70;99.90;;;;;;5054526;28;20172;-50
2023/01/08 06:59:43;;;;;;;3.30;0.60;;;7.70;99.90;;;;;;5054197;28;20640;-51
2023/01/08 07:02:17;;;;;;;1.57;0.70;;;7.70;99.90;;;;;;5054160;28;20719;-51
2023/01/08 07:04:42;;;;;;;2.47;0.63;;;7.70;99.90;;;;;;5055037;28;20198;-50
2023/01/08 07:07:11;;;;;;;2.47;0.70;;;7.70;99.90;;;;;;5054034;28;20198;-50
2023/01/08 07:09:37;;;;;;;2.53;0.60;;;7.70;99.90;;;;;;5054105;28;20200;-50
2023/01/08 07:12:02;;;;;;;1.30;0.77;;;7.70;99.90;;;;;;5053707;28;20200;-51
2023/01/08 07:14:28;;;;;;;5.33;0.70;;;7.70;99.90;;;;;;5054207;28;20203;-51
2023/01/08 07:16:53;;;;;;;4.23;0.80;;;7.70;99.90;;;;;;5053855;28;20662;-51
2023/01/08 07:19:19;;;;;;;2.63;0.60;;;7.70;99.90;;;;;;5054139;28;20188;-50
2023/01/08 07:21:44;;;;;;;1.73;0.93;;;7.70;99.90;;;;;;5053730;28;20192;-51
2023/01/08 07:24:10;;;;;;;6.07;0.83;;;7.70;99.90;;;;;;5054031;28;20191;-49
2023/01/08 07:26:36;;;;;;;2.70;0.50;;;7.70;99.90;;;;;;5053971;28;20263;-49
2023/01/08 07:29:01;;;;;;;3.67;0.73;;;7.60;99.90;;;;;;5053762;28;20180;-51
2023/01/08 07:31:27;;;;;;;1.97;0.80;;;7.70;99.90;;;;;;5035558;28;20553;-49
2023/01/08 07:33:52;;;;;;;4.27;0.77;;;7.70;99.90;;;;;;5036080;28;20184;-49
2023/01/08 07:36:21;;;;;;;1.93;0.60;;;7.70;99.90;;;;;;5053822;28;20176;-50
2023/01/08 07:38:50;;;;;;;3.87;0.77;;;7.70;99.90;;;;;;5054820;28;20624;-49
2023/01/08 07:41:16;;;;;;;4.23;0.70;;;7.70;99.90;;;;;;5053355;28;20203;-50
2023/01/08 07:43:42;;;;;;;2.33;0.63;;;7.70;99.90;;;;;;5053984;28;20183;-50
2023/01/08 07:46:07;;;;;;;3.17;0.70;;;7.70;99.90;;;;;;5053672;28;20181;-50
2023/01/08 07:48:33;;;;;;;1.30;0.57;;;7.70;99.90;;;;;;5053246;28;20263;-50
2023/01/08 07:51:05;;;;;;;3.13;1.07;;;7.60;99.90;;;;;;5053982;28;20196;-49
2023/01/08 07:53:31;;;;;;;6.00;0.90;;;7.50;99.90;;;;;;5035973;28;20180;-49
2023/01/08 07:56:03;;;;;;;3.17;1.13;;;7.50;99.90;;;;;;5053185;28;20192;-50
2023/01/08 07:58:30;;;;;;;5.50;1.20;;;7.50;99.90;;;;;;5053544;28;20215;-51
2023/01/08 08:00:56;;;;;;;2.83;1.00;;;7.40;99.90;;;;;;5053308;28;20184;-51
2023/01/08 08:03:22;;;;;;;5.17;1.00;;;7.40;99.90;;;;;;5053176;28;20187;-50
2023/01/08 08:05:47;;;;;;;2.33;1.13;;;7.30;99.90;;;;;;5053135;28;20515;-51
2023/01/08 08:08:13;;;;;;;3.63;0.87;;;7.30;99.90;;;;;;5053291;28;20207;-48
2023/01/08 08:10:40;;;;;;;11.97;1.40;;;7.30;99.90;;;;;;5053302;28;20203;-51
2023/01/08 08:13:06;;;;;;;4.30;1.17;;;7.20;99.90;;;;;;5052901;28;20234;-48
2023/01/08 08:15:33;;;;;;;8.60;1.27;;;7.20;99.90;;;;;;5052946;28;20172;-49
2023/01/08 08:17:59;;;;;;;10.07;1.80;;;7.20;99.90;;;;;;5052974;28;20180;-49
2023/01/08 08:20:25;;;;;;;8.47;1.33;;;7.20;99.90;;;;;;5053861;28;20176;-49
2023/01/08 08:22:50;;;;;;;8.13;1.10;;;7.10;99.90;;;;;;5035047;28;20211;-49
2023/01/08 08:25:16;;;;;;;7.83;1.10;;;7.10;99.90;;;;;;5057159;28;20176;-50
2023/01/08 08:27:43;;;;;;;10.00;1.57;;;7.10;99.90;;;;;;5058314;28;20214;-50
2023/01/08 08:30:10;;;;;;;5.60;1.30;;;7.10;99.90;;;;;;5057269;28;20200;-50
2023/01/08 08:32:36;;;;;;;4.80;1.33;;;7.10;99.90;;;;;;5057266;28;20196;-51
2023/01/08 08:35:02;;;;;;;6.10;1.30;;;7.10;99.90;;;;;;5056913;28;20183;-50
2023/01/08 08:37:28;;;;;;;7.17;1.37;;;7.00;99.90;;;;;;5056897;28;20180;-49
2023/01/08 08:39:54;;;;;;;2.77;0.90;;;7.00;99.90;;;;;;5056906;28;20186;-51
2023/01/08 08:42:19;;;;;;;4.83;1.10;;;7.00;99.90;;;;;;5056953;28;20199;-50
2023/01/08 08:44:45;;;;;;;7.13;1.43;;;7.00;99.90;;;;;;5057044;28;20299;-52
2023/01/08 08:47:10;;;;;;;7.00;1.27;;;6.90;99.90;;;;;;5056768;28;20541;-51
2023/01/08 08:49:36;;;;;;;3.57;0.80;;;6.90;99.90;;;;;;5056597;28;20214;-52
2023/01/08 08:52:03;;;;;;;5.80;1.30;;;7.00;99.90;;;;;;5056546;28;20196;-50
2023/01/08 08:54:28;;;;;;;6.40;1.07;;;7.00;99.90;;;;;;5056871;28;20172;-51
2023/01/08 08:56:54;;;;;;;8.63;1.50;;;7.10;99.90;;;;;;5056388;28;20262;-51
2023/01/08 08:59:19;;;;;;;3.83;1.20;;;7.10;99.90;;;;;;5056533;28;20176;-50
2023/01/08 09:01:45;;;;;;;5.57;1.30;;;7.20;99.90;;;;;;5056367;28;20200;-51
2023/01/08 09:04:10;;;;;;;5.17;1.20;;;7.20;99.90;;;;;;5056749;28;20593;-52
2023/01/08 09:06:36;;;;;;;5.60;1.40;;;7.30;99.90;;;;;;5056394;28;20602;-52
2023/01/08 09:09:02;;;;;;;3.80;1.03;;;7.30;99.90;;;;;;5056471;28;20181;-50
2023/01/08 09:11:27;;;;;;;3.07;1.07;;;7.40;99.90;;;;;;5056601;28;20195;-51
2023/01/08 09:13:53;;;;;;;6.43;1.20;;;7.40;99.90;;;;;;5056576;28;20238;-53
2023/01/08 09:16:19;;;;;;;4.30;1.13;;;7.40;99.90;;;;;;5056244;28;20169;-51
2023/01/08 09:18:45;;;;;;;5.40;0.90;;;7.40;99.90;;;;;;5056423;28;20187;-53
2023/01/08 09:21:11;;;;;;;2.00;0.90;;;7.50;99.90;;;;;;5056413;28;20234;-52
2023/01/08 09:23:37;;;;;;;11.00;1.23;;;7.60;99.90;;;;;;5056059;28;20208;-51
2023/01/08 09:26:04;;;;;;;5.70;1.20;;;7.60;99.90;;;;;;5056036;28;20729;-51
2023/01/08 09:28:30;;;;;;;7.47;1.30;;;7.80;99.90;;;;;;5056498;28;20180;-50
2023/01/08 09:31:00;;;;;;;6.10;1.33;;;7.90;99.90;;;;;;5055678;28;20267;-52
2023/01/08 09:33:25;;;;;;;5.83;1.20;;;8.10;99.90;;;;;;5056098;28;20184;-51
2023/01/08 09:35:51;;;;;;;2.97;0.90;;;8.30;99.90;;;;;;5055726;28;20177;-51
2023/01/08 09:38:16;;;;;;;4.83;1.00;;;8.50;99.90;;;;;;5055811;28;20261;-52
2023/01/08 09:40:57;;;;;;;6.23;0.90;;;8.70;99.90;;;;;;5056060;28;20181;-51
2023/01/08 09:43:25;;;;;;;15.17;1.27;;;8.90;99.90;;;;;;5056382;28;20259;-52
2023/01/08 09:45:59;;;;;;;3.47;1.00;;;9.00;99.90;;;;;;5055931;28;20239;-49
2023/01/08 09:48:28;;;;;;;6.33;1.00;;;9.10;99.90;;;;;;5055952;28;20172;-50
2023/01/08 09:50:55;;;;;;;3.43;0.97;;;9.20;99.90;;;;;;5055482;28;20199;-51
2023/01/08 09:53:20;;;;;;;3.07;1.00;;;9.20;99.90;;;;;;5055579;28;20173;-50
2023/01/08 09:55:57;;;;;;;1.20;0.70;;;9.20;99.90;;;;;;5055330;28;20188;-49
2023/01/08 09:58:38;;;;;;;4.20;1.00;;;9.20;99.90;;;;;;5055727;28;20164;-51
2023/01/08 10:01:05;;;;;;;1.53;0.83;;;9.30;99.90;;;;;;5037484;28;20207;-51
2023/01/08 10:03:41;;;;;;;2.47;1.03;;;9.30;99.90;;;;;;5055585;28;20208;-51
2023/01/08 10:06:12;;;;;;;4.30;1.30;;;9.30;99.90;;;;;;5055705;28;20251;-51
2023/01/08 10:08:39;;;;;;;5.17;1.43;;;9.40;99.90;;;;;;5055291;28;20675;-50
2023/01/08 10:11:06;;;;;;;7.47;1.03;;;9.60;99.90;;;;;;5054992;28;20208;-50
2023/01/08 10:13:35;;;;;;;4.27;1.00;;;9.60;99.90;;;;;;5055428;28;20200;-50
2023/01/08 10:16:04;;;;;;;4.20;1.07;;;9.70;99.90;;;;;;5055275;28;20213;-50
2023/01/08 10:18:31;;;;;;;5.80;1.13;;;9.70;99.90;;;;;;5055351;28;20177;-52
2023/01/08 10:20:57;;;;;;;5.57;1.00;;;9.70;99.90;;;;;;5055517;28;20268;-51
2023/01/08 10:23:22;;;;;;;4.03;1.00;;;9.70;99.90;;;;;;5054926;28;20180;-50
2023/01/08 10:25:57;;;;;;;7.67;1.23;;;9.70;99.90;;;;;;5055081;28;20187;-50
2023/01/08 10:28:28;;;;;;;4.23;1.10;;;9.70;99.90;;;;;;5055407;28;20617;-50
2023/01/08 10:31:02;;;;;;;6.17;1.30;;;9.70;99.90;;;;;;5054944;28;20198;-50
2023/01/08 10:33:39;;;;;;;1.93;0.90;;;9.80;99.90;;;;;;5055314;28;20518;-50
2023/01/08 10:36:08;;;;;;;9.60;1.27;;;9.80;99.90;;;;;;5054943;28;20163;-52
2023/01/08 10:38:55;;;;;;;5.57;0.90;;;9.90;99.90;;;;;;5055129;28;20179;-50
2023/01/08 10:41:21;;;;;;;4.30;1.10;;;10.10;99.90;;;;;;5040355;28;20209;-50
2023/01/08 10:43:59;;;;;;;2.77;0.80;;;10.20;99.90;;;;;;5054655;28;20176;-52
2023/01/08 10:46:29;;;;;;;3.67;1.00;;;10.20;99.90;;;;;;5054075;28;20246;-51
2023/01/08 10:48:58;;;;;;;1.80;0.80;;;10.30;99.90;;;;;;5054810;28;20176;-50
2023/01/08 10:51:26;;;;;;;8.50;1.00;;;10.30;99.90;;;;;;5054432;28;20757;-50
2023/01/08 10:53:54;;;;;;;2.60;0.90;;;10.40;99.90;;;;;;5054724;28;20191;-51
2023/01/08 10:56:25;;;;;;;2.83;0.80;;;10.50;99.90;;;;;;5054456;28;20545;-53
2023/01/08 10:58:52;;;;;;;2.17;0.77;;;10.60;99.90;;;;;;5054294;28;20165;-50
2023/01/08 11:01:27;;;;;;;1.27;0.63;;;10.60;99.90;;;;;;5054440;28;20199;-52
2023/01/08 11:04:00;;;;;;;0.80;0.60;;;10.70;99.90;;;;;;5054185;28;20214;-51
2023/01/08 11:06:31;;;;;;;2.13;0.57;;;10.70;99.90;;;;;;5054263;28;20278;-50
2023/01/08 11:09:03;;;;;;;2.47;0.70;;;10.80;99.90;;;;;;5054702;28;20605;-51
2023/01/08 11:11:34;;;;;;;3.57;0.80;;;10.80;99.90;;;;;;5053976;28;20200;-52
2023/01/08 11:14:02;;;;;;;2.40;0.80;;;10.90;99.90;;;;;;5036144;28;20184;-53
2023/01/08 11:16:36;;;;;;;1.17;0.40;;;11.00;99.90;;;;;;5054271;28;20271;-51
2023/01/08 11:19:03;;;;;;;1.90;0.40;;;11.00;99.90;;;;;;5054169;28;20174;-52
2023/01/08 11:21:31;;;;;;;2.03;0.60;;;11.00;99.90;;;;;;5053815;28;20199;-51
2023/01/08 11:24:09;;;;;;;0.30;0.30;;;11.00;99.90;;;;;;5054119;28;20597;-52
2023/01/08 11:26:37;;;;;;;1.27;0.50;;;10.90;99.90;;;;;;5053759;28;20167;-50
2023/01/08 11:29:13;;;;;;;2.47;0.60;;;10.60;99.90;;;;;;5035899;28;20238;-50
2023/01/08 11:31:58;;;;;;;3.00;0.43;;;10.20;99.90;;;;;;5054208;28;20230;-49
2023/01/08 11:34:47;;;;;;;0.83;0.60;;;10.00;99.90;;;;;;5035777;28;20599;-51
2023/01/08 11:37:21;;;;;;;1.43;0.33;;;9.80;99.90;;;;;;5053706;28;20554;-50
2023/01/08 11:39:47;;;;;;;2.77;0.70;;;9.60;99.90;;;;;;5053784;28;20594;-51
2023/01/08 11:42:47;;;;;;;1.07;0.40;;;9.50;99.90;;;;;;5053646;28;20262;-49
2023/01/08 11:45:48;;;;;;;1.60;0.70;;;9.50;99.90;;;;;;5053772;28;20190;-49
2023/01/08 11:48:50;;;;;;;2.40;0.40;;;9.40;99.90;;;;;;5053450;28;20588;-50
2023/01/08 11:51:37;;;;;;;1.80;0.70;;;9.40;99.90;;;;;;5053454;28;20218;-52
2023/01/08 11:54:27;;;;;;;3.03;0.63;;;9.40;99.90;;;;;;5053332;28;20173;-49
2023/01/08 11:57:08;;;;;;;1.93;0.70;;;9.40;99.90;;;;;;5053205;28;20198;-51
2023/01/08 11:59:34;;;;;;;1.10;0.60;;;9.50;99.90;;;;;;5053398;28;20153;-50
2023/01/08 12:02:39;;;;;;;3.93;0.40;;;9.60;99.90;;;;;;5035289;28;20207;-50
2023/01/08 12:05:24;;;;;;;0.40;0.40;;;9.60;99.90;;;;;;5053637;28;20165;-51
2023/01/08 12:07:59;;;;;;;1.70;0.70;;;9.80;99.90;;;;;;5053531;28;20531;-50
2023/01/08 12:11:03;;;;;;;2.13;0.60;;;9.80;99.90;;;;;;5053406;28;20329;-51
2023/01/08 12:13:47;;;;;;;2.00;0.50;;;10.00;99.90;;;;;;5035263;28;20164;-51
2023/01/08 12:16:37;;;;;;;0.83;0.50;;;10.00;99.90;;;;;;5053368;28;20195;-49
2023/01/08 12:19:32;;;;;;;1.20;0.60;;;10.00;99.90;;;;;;5053606;28;20243;-49
2023/01/08 12:22:22;;;;;;;3.63;0.87;;;10.10;99.90;;;;;;5053307;28;20211;-50
2023/01/08 12:25:14;;;;;;;0.57;0.50;;;10.20;99.90;;;;;;5053381;28;20263;-50
2023/01/08 12:28:16;;;;;;;1.37;0.60;;;10.20;99.90;;;;;;5052950;28;20191;-51
2023/01/08 12:31:04;;;;;;;1.00;0.67;;;10.20;99.90;;;;;;5022229;28;20261;-50
2023/01/08 12:33:54;;;;;;;2.00;0.70;;;10.20;99.90;;;;;;5053477;28;20684;-51
2023/01/08 12:36:27;;;;;;;0.60;0.50;;;10.20;99.90;;;;;;5043273;28;20665;-50
2023/01/08 12:38:59;;;;;;;2.77;0.87;;;10.30;99.90;;;;;;5052975;28;20512;-51
2023/01/08 12:41:25;;;;;;;0.60;0.60;;;10.30;99.90;;;;;;5053007;28;20249;-51
2023/01/08 12:44:09;;;;;;;1.77;0.50;;;10.40;99.90;;;;;;5052866;28;20176;-49
2023/01/08 12:46:37;;;;;;;0.33;0.33;;;10.50;99.90;;;;;;5052915;28;20180;-50
2023/01/08 12:49:09;;;;;;;0.83;0.50;;;10.50;99.90;;;;;;5052718;28;20234;-51
2023/01/08 12:52:07;;;;;;;1.73;0.80;;;10.60;99.90;;;;;;5052691;28;20203;-50
2023/01/08 12:54:39;;;;;;;3.83;0.60;;;10.60;99.90;;;;;;4981619;28;20306;-51
2023/01/08 12:57:09;;;;;;;1.23;0.60;;;10.70;99.90;;;;;;5053013;28;20169;-51
2023/01/08 12:59:58;;;;;;;2.53;0.50;;;10.80;99.90;;;;;;5052697;28;20172;-51
2023/01/08 13:02:46;;;;;;;2.43;0.50;;;10.80;99.90;;;;;;5052555;28;20199;-51
2023/01/08 13:05:17;;;;;;;0.97;0.60;;;10.80;99.90;;;;;;5052368;28;20192;-51
2023/01/08 13:07:47;;;;;;;1.60;0.70;;;10.90;99.90;;;;;;5052817;28;20184;-50
2023/01/08 13:10:39;;;;;;;3.63;0.87;;;10.90;99.90;;;;;;5054414;28;20199;-51